Roanoke Regional Woodrum Field
KROA : now visible

Airfield :











YOU CAN JOIN US ON...

 
LOGIN :

Register | Disclaimer

   EN    FR    IT 

 









Legend :    VFR   Marginal VFR   IFR   Intensive IFR   Very Intensive IFR
Visi :
Ceiling :
>= 8 km
>= 3000ft
5 to 8 km
1000 to 3000 ft
1500m to 5 km
500 to 1000 ft
800 to 1500m
200 to 500 ft
< 800m
< 200 ft
Symbols :   Thunderstorms  Fog  Heavy snow  Heavy precipitations  Wind > 20 kt






- Airport Elevation : 1175 ft
- IATA code : ROA


KROA - Roanoke Regional Woodrum Field

CURRENT METAR :
  • 260454Z 24006KT 10SM FEW035 BKN065 14/12 A2974 RMK AO2 SLP061 T01440122 402610117

EXPIRED METARs :
  • 260354Z 28004KT 10SM FEW033 OVC060 14/13 A2975 RMK AO2 RAB09E31 SLP068 P0000 T01390128
  • 260333Z 00000KT 10SM SCT020 BKN035 OVC055 14/13 A2976 RMK AO2 RAB09E31 P0000 T01390128
  • 260326Z 00000KT 10SM -RA BKN020 OVC035 13/13 A2977 RMK AO2 RAB09 P0000 T01330128
  • 260254Z 26003KT 10SM SCT042 SCT049 OVC060 14/12 A2976 RMK AO2 SLP071 T01390122 53016
  • 260209Z 36003KT 10SM BKN020 14/12 A2975 RMK AO2 T01390122

TAF KROA
Valid from the 26 at 02:00 until the 27 at 00:00 UTC


260215Z 2602/2624 36003KT P6SM BKN020
FM260400 27006KT P6SM VCSH SCT050
FM260600 29012KT P6SM FEW070
FM260800 30014G19KT P6SM SCT070
FM262300 31015G26KT P6SM SCT100
KZDC FIR / North America



MET'MAP, your aeronautical weather chart ! - Copyright ORBIFLY December 2007 - Disclaimer

ORBIFLY MET'MAP TEAM :

Programming & Development : Alexandra Zaïnal
Concept & original design : Baudouin d'Aumeries
Assistance for programming : Marc-Olivier Méhu
Technical & hardware support : Manuel Goepfert

Contact : metmap@orbifly.com




SOURCES & CREDITS :

   NOAA       Earth
Advisory